sensor_id;sensor_type;location;lat;lon;timestamp;P1;durP1;ratioP1;P2;durP2;ratioP2
76837;SDS011;65797;47.352;8.164;2023-06-22T00:02:16;11.57;;;4.33;;
76837;SDS011;65797;47.352;8.164;2023-06-22T00:04:42;14.23;;;5.30;;
76837;SDS011;65797;47.352;8.164;2023-06-22T00:07:08;13.50;;;5.70;;
76837;SDS011;65797;47.352;8.164;2023-06-22T00:09:34;9.00;;;5.80;;
76837;SDS011;65797;47.352;8.164;2023-06-22T00:11:59;10.13;;;5.40;;
76837;SDS011;65797;47.352;8.164;2023-06-22T00:14:25;13.50;;;5.27;;
76837;SDS011;65797;47.352;8.164;2023-06-22T00:16:51;12.03;;;5.57;;
76837;SDS011;65797;47.352;8.164;2023-06-22T00:19:20;10.43;;;4.80;;
76837;SDS011;65797;47.352;8.164;2023-06-22T00:21:47;10.70;;;5.27;;
76837;SDS011;65797;47.352;8.164;2023-06-22T00:24:18;9.30;;;5.47;;
76837;SDS011;65797;47.352;8.164;2023-06-22T00:26:47;16.40;;;5.73;;
76837;SDS011;65797;47.352;8.164;2023-06-22T00:29:13;21.80;;;6.30;;
76837;SDS011;65797;47.352;8.164;2023-06-22T00:31:39;13.20;;;4.67;;
76837;SDS011;65797;47.352;8.164;2023-06-22T00:34:05;13.07;;;5.90;;
76837;SDS011;65797;47.352;8.164;2023-06-22T00:36:33;8.13;;;4.80;;
76837;SDS011;65797;47.352;8.164;2023-06-22T00:38:59;13.27;;;5.73;;
76837;SDS011;65797;47.352;8.164;2023-06-22T00:41:25;15.30;;;5.97;;
76837;SDS011;65797;47.352;8.164;2023-06-22T00:43:53;13.50;;;5.80;;
76837;SDS011;65797;47.352;8.164;2023-06-22T00:46:19;8.20;;;4.80;;
76837;SDS011;65797;47.352;8.164;2023-06-22T00:48:47;5.60;;;4.20;;
76837;SDS011;65797;47.352;8.164;2023-06-22T00:51:13;11.23;;;5.40;;
76837;SDS011;65797;47.352;8.164;2023-06-22T00:53:39;13.63;;;6.23;;
76837;SDS011;65797;47.352;8.164;2023-06-22T00:56:06;7.80;;;5.47;;
76837;SDS011;65797;47.352;8.164;2023-06-22T00:58:34;13.77;;;5.37;;
76837;SDS011;65797;47.352;8.164;2023-06-22T01:01:01;19.33;;;6.43;;
76837;SDS011;65797;47.352;8.164;2023-06-22T01:03:27;14.33;;;5.60;;
76837;SDS011;65797;47.352;8.164;2023-06-22T01:05:54;11.13;;;5.50;;
76837;SDS011;65797;47.352;8.164;2023-06-22T01:13:50;11.93;;;6.13;;
76837;SDS011;65797;47.352;8.164;2023-06-22T01:16:31;12.50;;;6.27;;
76837;SDS011;65797;47.352;8.164;2023-06-22T01:19:01;11.60;;;6.33;;
76837;SDS011;65797;47.352;8.164;2023-06-22T01:21:53;10.30;;;6.20;;
76837;SDS011;65797;47.352;8.164;2023-06-22T01:24:23;11.80;;;6.20;;
76837;SDS011;65797;47.352;8.164;2023-06-22T01:27:08;11.47;;;6.00;;
76837;SDS011;65797;47.352;8.164;2023-06-22T01:29:39;10.80;;;6.00;;
76837;SDS011;65797;47.352;8.164;2023-06-22T01:32:07;24.30;;;6.37;;
76837;SDS011;65797;47.352;8.164;2023-06-22T01:34:35;19.00;;;5.63;;
76837;SDS011;65797;47.352;8.164;2023-06-22T01:37:02;11.33;;;5.63;;
76837;SDS011;65797;47.352;8.164;2023-06-22T01:39:29;13.67;;;5.37;;
76837;SDS011;65797;47.352;8.164;2023-06-22T01:41:55;9.00;;;5.33;;
76837;SDS011;65797;47.352;8.164;2023-06-22T01:44:22;10.90;;;5.17;;
76837;SDS011;65797;47.352;8.164;2023-06-22T01:46:49;11.50;;;5.80;;
76837;SDS011;65797;47.352;8.164;2023-06-22T01:49:16;11.40;;;5.97;;
76837;SDS011;65797;47.352;8.164;2023-06-22T01:51:42;11.23;;;5.40;;
76837;SDS011;65797;47.352;8.164;2023-06-22T01:54:07;12.83;;;6.43;;
76837;SDS011;65797;47.352;8.164;2023-06-22T01:56:33;12.70;;;5.07;;
76837;SDS011;65797;47.352;8.164;2023-06-22T02:01:26;20.23;;;5.90;;
76837;SDS011;65797;47.352;8.164;2023-06-22T02:04:04;17.43;;;5.73;;
76837;SDS011;65797;47.352;8.164;2023-06-22T02:06:35;15.57;;;6.00;;
76837;SDS011;65797;47.352;8.164;2023-06-22T02:09:06;11.90;;;6.17;;
76837;SDS011;65797;47.352;8.164;2023-06-22T02:11:34;14.23;;;5.90;;
76837;SDS011;65797;47.352;8.164;2023-06-22T02:14:02;14.33;;;5.70;;
76837;SDS011;65797;47.352;8.164;2023-06-22T02:16:28;13.20;;;6.73;;
76837;SDS011;65797;47.352;8.164;2023-06-22T02:18:56;15.07;;;5.20;;
76837;SDS011;65797;47.352;8.164;2023-06-22T02:21:28;17.03;;;7.10;;
76837;SDS011;65797;47.352;8.164;2023-06-22T02:23:54;12.40;;;6.00;;
76837;SDS011;65797;47.352;8.164;2023-06-22T02:26:20;14.13;;;6.13;;
76837;SDS011;65797;47.352;8.164;2023-06-22T02:28:45;16.80;;;5.40;;
76837;SDS011;65797;47.352;8.164;2023-06-22T02:31:11;10.57;;;5.57;;
76837;SDS011;65797;47.352;8.164;2023-06-22T02:33:37;12.17;;;5.57;;
76837;SDS011;65797;47.352;8.164;2023-06-22T02:36:03;15.57;;;5.50;;
76837;SDS011;65797;47.352;8.164;2023-06-22T02:38:30;16.53;;;5.80;;
76837;SDS011;65797;47.352;8.164;2023-06-22T02:40:59;15.77;;;5.63;;
76837;SDS011;65797;47.352;8.164;2023-06-22T02:43:25;17.00;;;6.13;;
76837;SDS011;65797;47.352;8.164;2023-06-22T02:45:51;21.57;;;7.23;;
76837;SDS011;65797;47.352;8.164;2023-06-22T02:48:17;7.03;;;5.00;;
76837;SDS011;65797;47.352;8.164;2023-06-22T02:50:42;15.93;;;5.60;;
76837;SDS011;65797;47.352;8.164;2023-06-22T02:53:08;17.03;;;6.20;;
76837;SDS011;65797;47.352;8.164;2023-06-22T02:55:34;9.50;;;5.50;;
76837;SDS011;65797;47.352;8.164;2023-06-22T02:57:59;13.33;;;5.50;;
76837;SDS011;65797;47.352;8.164;2023-06-22T03:00:29;10.90;;;5.33;;
76837;SDS011;65797;47.352;8.164;2023-06-22T03:02:56;11.37;;;5.83;;
76837;SDS011;65797;47.352;8.164;2023-06-22T03:05:22;12.93;;;6.10;;
76837;SDS011;65797;47.352;8.164;2023-06-22T03:07:48;11.90;;;5.17;;
76837;SDS011;65797;47.352;8.164;2023-06-22T03:10:15;14.53;;;6.40;;
76837;SDS011;65797;47.352;8.164;2023-06-22T03:12:41;15.00;;;6.20;;
76837;SDS011;65797;47.352;8.164;2023-06-22T03:15:08;15.83;;;6.00;;
76837;SDS011;65797;47.352;8.164;2023-06-22T03:17:35;9.83;;;5.37;;
76837;SDS011;65797;47.352;8.164;2023-06-22T03:20:03;10.27;;;5.80;;
76837;SDS011;65797;47.352;8.164;2023-06-22T03:22:39;10.80;;;6.03;;
76837;SDS011;65797;47.352;8.164;2023-06-22T03:25:06;11.37;;;5.80;;
76837;SDS011;65797;47.352;8.164;2023-06-22T03:27:36;12.20;;;5.90;;
76837;SDS011;65797;47.352;8.164;2023-06-22T03:30:01;15.63;;;6.27;;
76837;SDS011;65797;47.352;8.164;2023-06-22T03:32:27;19.53;;;6.33;;
76837;SDS011;65797;47.352;8.164;2023-06-22T03:34:53;6.27;;;4.87;;
76837;SDS011;65797;47.352;8.164;2023-06-22T03:37:19;22.07;;;5.90;;
76837;SDS011;65797;47.352;8.164;2023-06-22T03:39:51;11.10;;;5.43;;
76837;SDS011;65797;47.352;8.164;2023-06-22T03:42:30;13.93;;;6.53;;
76837;SDS011;65797;47.352;8.164;2023-06-22T03:44:56;19.37;;;5.33;;
76837;SDS011;65797;47.352;8.164;2023-06-22T03:47:22;13.47;;;6.33;;
76837;SDS011;65797;47.352;8.164;2023-06-22T03:49:47;11.07;;;6.10;;
76837;SDS011;65797;47.352;8.164;2023-06-22T03:52:13;17.50;;;6.40;;
76837;SDS011;65797;47.352;8.164;2023-06-22T03:54:39;9.93;;;5.40;;
76837;SDS011;65797;47.352;8.164;2023-06-22T03:57:04;22.50;;;6.13;;
76837;SDS011;65797;47.352;8.164;2023-06-22T03:59:31;9.90;;;5.90;;
76837;SDS011;65797;47.352;8.164;2023-06-22T04:01:57;12.20;;;5.53;;
76837;SDS011;65797;47.352;8.164;2023-06-22T04:04:23;15.50;;;6.70;;
76837;SDS011;65797;47.352;8.164;2023-06-22T04:06:48;13.93;;;6.77;;
76837;SDS011;65797;47.352;8.164;2023-06-22T04:09:14;12.57;;;5.83;;
76837;SDS011;65797;47.352;8.164;2023-06-22T04:11:40;12.93;;;6.47;;
76837;SDS011;65797;47.352;8.164;2023-06-22T04:14:05;17.90;;;6.80;;
76837;SDS011;65797;47.352;8.164;2023-06-22T04:16:31;17.00;;;6.27;;
76837;SDS011;65797;47.352;8.164;2023-06-22T04:18:57;11.03;;;5.50;;
76837;SDS011;65797;47.352;8.164;2023-06-22T04:21:22;10.07;;;6.03;;
76837;SDS011;65797;47.352;8.164;2023-06-22T04:23:48;8.20;;;6.20;;
76837;SDS011;65797;47.352;8.164;2023-06-22T04:26:14;10.57;;;5.70;;
76837;SDS011;65797;47.352;8.164;2023-06-22T04:28:40;23.77;;;6.00;;
76837;SDS011;65797;47.352;8.164;2023-06-22T04:31:06;21.50;;;6.47;;
76837;SDS011;65797;47.352;8.164;2023-06-22T04:33:57;14.10;;;6.50;;
76837;SDS011;65797;47.352;8.164;2023-06-22T04:36:30;20.10;;;7.37;;
76837;SDS011;65797;47.352;8.164;2023-06-22T04:39:02;14.47;;;6.40;;
76837;SDS011;65797;47.352;8.164;2023-06-22T04:41:29;17.93;;;7.13;;
76837;SDS011;65797;47.352;8.164;2023-06-22T04:43:54;15.70;;;7.40;;
76837;SDS011;65797;47.352;8.164;2023-06-22T04:46:25;10.67;;;7.10;;
76837;SDS011;65797;47.352;8.164;2023-06-22T04:48:50;11.80;;;6.67;;
76837;SDS011;65797;47.352;8.164;2023-06-22T04:51:16;18.43;;;6.50;;
76837;SDS011;65797;47.352;8.164;2023-06-22T04:53:46;20.23;;;6.97;;
76837;SDS011;65797;47.352;8.164;2023-06-22T04:56:12;13.77;;;7.53;;
76837;SDS011;65797;47.352;8.164;2023-06-22T04:58:38;18.47;;;7.20;;
76837;SDS011;65797;47.352;8.164;2023-06-22T05:38:05;24.43;;;7.93;;
76837;SDS011;65797;47.352;8.164;2023-06-22T05:40:31;11.40;;;6.60;;
76837;SDS011;65797;47.352;8.164;2023-06-22T05:42:56;28.40;;;8.50;;
76837;SDS011;65797;47.352;8.164;2023-06-22T05:45:22;17.30;;;7.90;;
76837;SDS011;65797;47.352;8.164;2023-06-22T05:47:48;13.53;;;7.10;;
76837;SDS011;65797;47.352;8.164;2023-06-22T05:50:14;11.90;;;6.47;;
76837;SDS011;65797;47.352;8.164;2023-06-22T05:52:39;15.13;;;7.80;;
76837;SDS011;65797;47.352;8.164;2023-06-22T05:55:05;32.90;;;8.67;;
76837;SDS011;65797;47.352;8.164;2023-06-22T05:57:31;12.80;;;6.63;;
76837;SDS011;65797;47.352;8.164;2023-06-22T06:00:00;16.70;;;7.10;;
76837;SDS011;65797;47.352;8.164;2023-06-22T06:02:28;12.97;;;6.87;;
76837;SDS011;65797;47.352;8.164;2023-06-22T06:04:54;17.53;;;8.07;;
76837;SDS011;65797;47.352;8.164;2023-06-22T06:07:19;14.40;;;7.33;;
76837;SDS011;65797;47.352;8.164;2023-06-22T06:09:46;15.27;;;7.67;;
76837;SDS011;65797;47.352;8.164;2023-06-22T06:12:13;16.87;;;8.20;;
76837;SDS011;65797;47.352;8.164;2023-06-22T06:14:38;24.43;;;8.13;;
76837;SDS011;65797;47.352;8.164;2023-06-22T06:17:04;17.53;;;8.47;;
76837;SDS011;65797;47.352;8.164;2023-06-22T06:19:30;26.93;;;8.37;;
76837;SDS011;65797;47.352;8.164;2023-06-22T06:21:55;13.60;;;7.13;;
76837;SDS011;65797;47.352;8.164;2023-06-22T06:24:21;13.93;;;6.30;;
76837;SDS011;65797;47.352;8.164;2023-06-22T06:26:47;14.90;;;7.20;;
76837;SDS011;65797;47.352;8.164;2023-06-22T06:29:13;15.90;;;7.67;;
76837;SDS011;65797;47.352;8.164;2023-06-22T06:31:41;10.47;;;7.30;;
76837;SDS011;65797;47.352;8.164;2023-06-22T06:34:07;16.90;;;6.80;;
76837;SDS011;65797;47.352;8.164;2023-06-22T06:36:33;11.97;;;7.77;;
76837;SDS011;65797;47.352;8.164;2023-06-22T06:38:58;14.67;;;7.13;;
76837;SDS011;65797;47.352;8.164;2023-06-22T06:41:24;13.97;;;7.33;;
76837;SDS011;65797;47.352;8.164;2023-06-22T06:43:50;15.07;;;6.80;;
76837;SDS011;65797;47.352;8.164;2023-06-22T06:46:15;14.70;;;7.80;;
76837;SDS011;65797;47.352;8.164;2023-06-22T06:48:41;17.40;;;6.73;;
76837;SDS011;65797;47.352;8.164;2023-06-22T06:51:07;17.40;;;8.20;;
76837;SDS011;65797;47.352;8.164;2023-06-22T06:53:37;11.30;;;6.30;;
76837;SDS011;65797;47.352;8.164;2023-06-22T06:56:03;24.20;;;8.17;;
76837;SDS011;65797;47.352;8.164;2023-06-22T06:58:31;23.60;;;8.33;;
76837;SDS011;65797;47.352;8.164;2023-06-22T07:00:57;12.33;;;7.50;;
76837;SDS011;65797;47.352;8.164;2023-06-22T07:03:23;16.97;;;7.83;;
76837;SDS011;65797;47.352;8.164;2023-06-22T07:05:49;15.97;;;7.20;;
76837;SDS011;65797;47.352;8.164;2023-06-22T07:08:14;17.07;;;7.67;;
76837;SDS011;65797;47.352;8.164;2023-06-22T07:10:40;11.07;;;6.47;;
76837;SDS011;65797;47.352;8.164;2023-06-22T07:13:06;17.77;;;7.63;;
76837;SDS011;65797;47.352;8.164;2023-06-22T07:15:31;13.70;;;7.50;;
76837;SDS011;65797;47.352;8.164;2023-06-22T07:17:57;13.67;;;7.67;;
76837;SDS011;65797;47.352;8.164;2023-06-22T07:20:23;18.47;;;8.50;;
76837;SDS011;65797;47.352;8.164;2023-06-22T07:22:49;19.23;;;7.97;;
76837;SDS011;65797;47.352;8.164;2023-06-22T07:25:14;14.20;;;7.23;;
76837;SDS011;65797;47.352;8.164;2023-06-22T07:27:44;16.87;;;7.63;;
76837;SDS011;65797;47.352;8.164;2023-06-22T07:30:22;16.40;;;8.07;;
76837;SDS011;65797;47.352;8.164;2023-06-22T07:32:48;19.63;;;7.53;;
76837;SDS011;65797;47.352;8.164;2023-06-22T07:35:14;17.00;;;7.73;;
76837;SDS011;65797;47.352;8.164;2023-06-22T07:37:41;12.17;;;7.30;;
76837;SDS011;65797;47.352;8.164;2023-06-22T07:40:07;19.87;;;7.87;;
76837;SDS011;65797;47.352;8.164;2023-06-22T07:42:34;14.40;;;6.40;;
76837;SDS011;65797;47.352;8.164;2023-06-22T07:45:00;20.40;;;7.30;;
76837;SDS011;65797;47.352;8.164;2023-06-22T07:47:27;12.77;;;6.30;;
76837;SDS011;65797;47.352;8.164;2023-06-22T07:49:54;15.00;;;7.50;;
76837;SDS011;65797;47.352;8.164;2023-06-22T07:52:22;18.53;;;7.37;;
76837;SDS011;65797;47.352;8.164;2023-06-22T07:54:47;18.77;;;6.80;;
76837;SDS011;65797;47.352;8.164;2023-06-22T07:57:13;21.03;;;8.20;;
76837;SDS011;65797;47.352;8.164;2023-06-22T07:59:39;9.00;;;6.27;;
76837;SDS011;65797;47.352;8.164;2023-06-22T08:02:05;11.87;;;6.17;;
76837;SDS011;65797;47.352;8.164;2023-06-22T08:04:30;12.80;;;7.50;;
76837;SDS011;65797;47.352;8.164;2023-06-22T08:06:59;22.03;;;7.80;;
76837;SDS011;65797;47.352;8.164;2023-06-22T08:09:24;20.27;;;7.33;;
76837;SDS011;65797;47.352;8.164;2023-06-22T08:11:50;11.80;;;7.00;;
76837;SDS011;65797;47.352;8.164;2023-06-22T08:14:16;16.20;;;6.97;;
76837;SDS011;65797;47.352;8.164;2023-06-22T08:16:41;13.27;;;7.37;;
76837;SDS011;65797;47.352;8.164;2023-06-22T08:19:07;22.43;;;8.60;;
76837;SDS011;65797;47.352;8.164;2023-06-22T08:21:33;14.43;;;7.17;;
76837;SDS011;65797;47.352;8.164;2023-06-22T08:23:59;19.30;;;7.33;;
76837;SDS011;65797;47.352;8.164;2023-06-22T08:26:24;16.00;;;8.00;;
76837;SDS011;65797;47.352;8.164;2023-06-22T08:28:50;11.70;;;6.60;;
76837;SDS011;65797;47.352;8.164;2023-06-22T08:31:16;13.70;;;7.07;;
76837;SDS011;65797;47.352;8.164;2023-06-22T08:33:41;11.80;;;6.57;;
76837;SDS011;65797;47.352;8.164;2023-06-22T08:36:10;15.50;;;7.50;;
76837;SDS011;65797;47.352;8.164;2023-06-22T08:38:38;13.67;;;7.80;;
76837;SDS011;65797;47.352;8.164;2023-06-22T08:41:04;21.27;;;8.03;;
76837;SDS011;65797;47.352;8.164;2023-06-22T08:43:30;12.70;;;7.43;;
76837;SDS011;65797;47.352;8.164;2023-06-22T08:45:55;15.40;;;7.27;;
76837;SDS011;65797;47.352;8.164;2023-06-22T08:48:21;12.13;;;7.47;;
76837;SDS011;65797;47.352;8.164;2023-06-22T08:50:47;12.30;;;8.30;;
76837;SDS011;65797;47.352;8.164;2023-06-22T08:53:12;11.57;;;7.77;;
76837;SDS011;65797;47.352;8.164;2023-06-22T08:55:38;19.63;;;8.10;;
76837;SDS011;65797;47.352;8.164;2023-06-22T08:58:04;13.00;;;8.20;;
76837;SDS011;65797;47.352;8.164;2023-06-22T09:00:30;16.33;;;8.60;;
76837;SDS011;65797;47.352;8.164;2023-06-22T09:02:59;14.33;;;8.40;;
76837;SDS011;65797;47.352;8.164;2023-06-22T09:05:25;15.40;;;7.43;;
76837;SDS011;65797;47.352;8.164;2023-06-22T09:07:53;16.90;;;7.47;;
76837;SDS011;65797;47.352;8.164;2023-06-22T09:10:21;11.87;;;7.23;;
76837;SDS011;65797;47.352;8.164;2023-06-22T09:12:49;19.67;;;8.10;;
76837;SDS011;65797;47.352;8.164;2023-06-22T09:15:15;14.33;;;7.70;;
76837;SDS011;65797;47.352;8.164;2023-06-22T09:17:41;18.63;;;7.83;;
76837;SDS011;65797;47.352;8.164;2023-06-22T09:20:07;13.47;;;7.67;;
76837;SDS011;65797;47.352;8.164;2023-06-22T09:22:36;18.67;;;9.00;;
76837;SDS011;65797;47.352;8.164;2023-06-22T09:25:01;11.23;;;7.30;;
76837;SDS011;65797;47.352;8.164;2023-06-22T09:27:28;17.83;;;8.73;;
76837;SDS011;65797;47.352;8.164;2023-06-22T09:29:54;24.30;;;8.67;;
76837;SDS011;65797;47.352;8.164;2023-06-22T09:32:20;17.60;;;7.60;;
76837;SDS011;65797;47.352;8.164;2023-06-22T09:34:46;18.37;;;8.10;;
76837;SDS011;65797;47.352;8.164;2023-06-22T09:37:11;18.70;;;8.90;;
76837;SDS011;65797;47.352;8.164;2023-06-22T09:39:37;17.97;;;8.90;;
76837;SDS011;65797;47.352;8.164;2023-06-22T09:42:03;14.80;;;8.27;;
76837;SDS011;65797;47.352;8.164;2023-06-22T09:44:30;23.93;;;8.30;;
76837;SDS011;65797;47.352;8.164;2023-06-22T09:46:56;16.37;;;8.60;;
76837;SDS011;65797;47.352;8.164;2023-06-22T09:49:22;10.53;;;8.10;;
76837;SDS011;65797;47.352;8.164;2023-06-22T09:51:47;16.30;;;8.40;;
76837;SDS011;65797;47.352;8.164;2023-06-22T09:54:14;14.43;;;7.73;;
76837;SDS011;65797;47.352;8.164;2023-06-22T09:56:40;16.87;;;8.53;;
76837;SDS011;65797;47.352;8.164;2023-06-22T09:59:06;12.30;;;7.87;;
76837;SDS011;65797;47.352;8.164;2023-06-22T10:01:39;13.53;;;7.90;;
76837;SDS011;65797;47.352;8.164;2023-06-22T10:04:49;17.80;;;8.57;;
76837;SDS011;65797;47.352;8.164;2023-06-22T10:07:15;18.63;;;8.33;;
76837;SDS011;65797;47.352;8.164;2023-06-22T10:09:41;16.00;;;8.80;;
76837;SDS011;65797;47.352;8.164;2023-06-22T10:12:06;12.33;;;7.73;;
76837;SDS011;65797;47.352;8.164;2023-06-22T10:17:29;17.03;;;7.57;;
76837;SDS011;65797;47.352;8.164;2023-06-22T10:19:57;13.80;;;8.13;;
76837;SDS011;65797;47.352;8.164;2023-06-22T10:22:23;13.70;;;7.70;;
76837;SDS011;65797;47.352;8.164;2023-06-22T10:24:49;20.93;;;8.00;;
76837;SDS011;65797;47.352;8.164;2023-06-22T10:27:15;21.33;;;8.47;;
76837;SDS011;65797;47.352;8.164;2023-06-22T10:29:41;16.70;;;9.60;;
76837;SDS011;65797;47.352;8.164;2023-06-22T10:32:06;17.50;;;9.20;;
76837;SDS011;65797;47.352;8.164;2023-06-22T10:34:32;16.27;;;8.80;;
76837;SDS011;65797;47.352;8.164;2023-06-22T10:36:58;15.30;;;7.80;;
76837;SDS011;65797;47.352;8.164;2023-06-22T10:39:24;13.77;;;7.17;;
76837;SDS011;65797;47.352;8.164;2023-06-22T10:41:50;11.03;;;7.60;;
76837;SDS011;65797;47.352;8.164;2023-06-22T10:44:16;13.87;;;7.87;;
76837;SDS011;65797;47.352;8.164;2023-06-22T10:46:42;12.17;;;8.20;;
76837;SDS011;65797;47.352;8.164;2023-06-22T10:49:08;16.40;;;7.87;;
76837;SDS011;65797;47.352;8.164;2023-06-22T10:51:34;10.60;;;7.37;;
76837;SDS011;65797;47.352;8.164;2023-06-22T10:53:59;17.37;;;7.57;;
76837;SDS011;65797;47.352;8.164;2023-06-22T10:56:25;16.03;;;7.70;;
76837;SDS011;65797;47.352;8.164;2023-06-22T10:58:50;14.63;;;7.60;;
76837;SDS011;65797;47.352;8.164;2023-06-22T11:01:16;9.03;;;6.80;;
76837;SDS011;65797;47.352;8.164;2023-06-22T11:03:43;19.40;;;7.60;;
76837;SDS011;65797;47.352;8.164;2023-06-22T11:06:09;16.27;;;7.30;;
76837;SDS011;65797;47.352;8.164;2023-06-22T11:08:34;23.23;;;6.80;;
76837;SDS011;65797;47.352;8.164;2023-06-22T11:11:00;16.70;;;7.03;;
76837;SDS011;65797;47.352;8.164;2023-06-22T11:13:26;15.10;;;8.60;;
76837;SDS011;65797;47.352;8.164;2023-06-22T11:15:51;20.27;;;7.97;;
76837;SDS011;65797;47.352;8.164;2023-06-22T11:18:19;12.37;;;8.20;;
76837;SDS011;65797;47.352;8.164;2023-06-22T11:20:54;19.73;;;9.37;;
76837;SDS011;65797;47.352;8.164;2023-06-22T11:23:19;21.80;;;9.30;;
76837;SDS011;65797;47.352;8.164;2023-06-22T11:25:45;20.40;;;8.63;;
76837;SDS011;65797;47.352;8.164;2023-06-22T11:28:11;19.50;;;9.60;;
76837;SDS011;65797;47.352;8.164;2023-06-22T11:30:37;24.90;;;8.00;;
76837;SDS011;65797;47.352;8.164;2023-06-22T11:33:02;20.90;;;8.43;;
76837;SDS011;65797;47.352;8.164;2023-06-22T11:35:28;21.43;;;9.20;;
76837;SDS011;65797;47.352;8.164;2023-06-22T11:37:54;18.07;;;8.33;;
76837;SDS011;65797;47.352;8.164;2023-06-22T14:39:58;19.60;;;6.23;;
76837;SDS011;65797;47.352;8.164;2023-06-22T14:42:24;14.60;;;4.73;;
76837;SDS011;65797;47.352;8.164;2023-06-22T15:12:28;12.43;;;4.77;;
76837;SDS011;65797;47.352;8.164;2023-06-22T15:33:01;11.77;;;5.10;;
76837;SDS011;65797;47.352;8.164;2023-06-22T15:35:28;12.10;;;4.80;;
76837;SDS011;65797;47.352;8.164;2023-06-22T15:37:53;11.13;;;5.37;;
76837;SDS011;65797;47.352;8.164;2023-06-22T15:40:19;9.90;;;4.73;;
76837;SDS011;65797;47.352;8.164;2023-06-22T15:53:06;9.37;;;4.43;;
76837;SDS011;65797;47.352;8.164;2023-06-22T15:58:07;7.17;;;4.47;;
76837;SDS011;65797;47.352;8.164;2023-06-22T16:03:10;7.00;;;4.40;;
76837;SDS011;65797;47.352;8.164;2023-06-22T16:05:35;10.83;;;5.07;;
76837;SDS011;65797;47.352;8.164;2023-06-22T16:08:01;12.27;;;5.50;;
76837;SDS011;65797;47.352;8.164;2023-06-22T16:10:27;9.93;;;4.90;;
76837;SDS011;65797;47.352;8.164;2023-06-22T16:12:52;15.10;;;5.50;;
76837;SDS011;65797;47.352;8.164;2023-06-22T16:15:18;14.30;;;5.10;;
76837;SDS011;65797;47.352;8.164;2023-06-22T16:17:44;7.90;;;4.70;;
76837;SDS011;65797;47.352;8.164;2023-06-22T16:20:10;14.20;;;5.70;;
76837;SDS011;65797;47.352;8.164;2023-06-22T16:22:36;10.80;;;4.30;;
76837;SDS011;65797;47.352;8.164;2023-06-22T16:25:02;12.07;;;3.93;;
76837;SDS011;65797;47.352;8.164;2023-06-22T16:27:30;14.33;;;4.03;;
76837;SDS011;65797;47.352;8.164;2023-06-22T16:29:57;6.67;;;3.83;;
76837;SDS011;65797;47.352;8.164;2023-06-22T16:32:29;7.83;;;2.87;;
76837;SDS011;65797;47.352;8.164;2023-06-22T16:34:55;8.80;;;3.47;;
76837;SDS011;65797;47.352;8.164;2023-06-22T16:37:21;9.40;;;4.13;;
76837;SDS011;65797;47.352;8.164;2023-06-22T16:39:46;8.40;;;3.53;;
76837;SDS011;65797;47.352;8.164;2023-06-22T16:42:12;9.07;;;4.10;;
76837;SDS011;65797;47.352;8.164;2023-06-22T16:44:38;8.30;;;4.00;;
76837;SDS011;65797;47.352;8.164;2023-06-22T16:47:03;10.50;;;3.43;;
76837;SDS011;65797;47.352;8.164;2023-06-22T16:52:05;10.53;;;3.63;;
76837;SDS011;65797;47.352;8.164;2023-06-22T16:54:31;6.13;;;3.00;;
76837;SDS011;65797;47.352;8.164;2023-06-22T16:57:00;7.43;;;3.67;;
76837;SDS011;65797;47.352;8.164;2023-06-22T16:59:27;7.53;;;3.20;;
76837;SDS011;65797;47.352;8.164;2023-06-22T17:01:53;7.07;;;3.30;;
76837;SDS011;65797;47.352;8.164;2023-06-22T17:04:21;8.50;;;3.60;;
76837;SDS011;65797;47.352;8.164;2023-06-22T17:06:59;7.33;;;3.23;;
76837;SDS011;65797;47.352;8.164;2023-06-22T17:09:29;8.60;;;3.47;;
76837;SDS011;65797;47.352;8.164;2023-06-22T17:11:56;6.03;;;3.30;;
76837;SDS011;65797;47.352;8.164;2023-06-22T17:14:24;7.70;;;3.27;;
76837;SDS011;65797;47.352;8.164;2023-06-22T17:16:50;12.57;;;3.37;;
76837;SDS011;65797;47.352;8.164;2023-06-22T17:19:16;9.10;;;3.20;;
76837;SDS011;65797;47.352;8.164;2023-06-22T17:21:45;9.40;;;3.50;;
76837;SDS011;65797;47.352;8.164;2023-06-22T17:24:12;6.70;;;3.40;;
76837;SDS011;65797;47.352;8.164;2023-06-22T17:26:44;6.27;;;2.50;;
76837;SDS011;65797;47.352;8.164;2023-06-22T17:29:14;8.33;;;2.13;;
76837;SDS011;65797;47.352;8.164;2023-06-22T17:31:40;7.00;;;2.13;;
76837;SDS011;65797;47.352;8.164;2023-06-22T17:34:11;5.17;;;2.37;;
76837;SDS011;65797;47.352;8.164;2023-06-22T17:36:44;2.37;;;1.60;;
76837;SDS011;65797;47.352;8.164;2023-06-22T17:39:13;3.20;;;1.80;;
76837;SDS011;65797;47.352;8.164;2023-06-22T17:41:43;3.83;;;1.30;;
76837;SDS011;65797;47.352;8.164;2023-06-22T17:44:11;12.63;;;1.43;;
76837;SDS011;65797;47.352;8.164;2023-06-22T17:46:42;2.70;;;1.70;;
76837;SDS011;65797;47.352;8.164;2023-06-22T17:49:30;3.37;;;1.40;;
76837;SDS011;65797;47.352;8.164;2023-06-22T17:52:00;3.00;;;1.80;;
76837;SDS011;65797;47.352;8.164;2023-06-22T17:54:29;1.67;;;1.27;;
76837;SDS011;65797;47.352;8.164;2023-06-22T18:00:25;1.33;;;1.23;;
76837;SDS011;65797;47.352;8.164;2023-06-22T18:02:51;3.47;;;1.70;;
76837;SDS011;65797;47.352;8.164;2023-06-22T18:05:17;2.30;;;1.57;;
76837;SDS011;65797;47.352;8.164;2023-06-22T18:11:10;3.10;;;1.90;;
76837;SDS011;65797;47.352;8.164;2023-06-22T18:13:36;2.37;;;1.60;;
76837;SDS011;65797;47.352;8.164;2023-06-22T18:16:02;2.60;;;1.63;;
76837;SDS011;65797;47.352;8.164;2023-06-22T18:18:28;1.90;;;1.70;;
76837;SDS011;65797;47.352;8.164;2023-06-22T18:20:55;2.30;;;2.10;;
76837;SDS011;65797;47.352;8.164;2023-06-22T18:23:24;3.67;;;1.60;;
76837;SDS011;65797;47.352;8.164;2023-06-22T18:25:50;4.47;;;2.10;;
76837;SDS011;65797;47.352;8.164;2023-06-22T18:28:16;2.60;;;1.73;;
76837;SDS011;65797;47.352;8.164;2023-06-22T18:30:43;4.27;;;1.50;;
76837;SDS011;65797;47.352;8.164;2023-06-22T18:33:09;2.23;;;1.60;;
76837;SDS011;65797;47.352;8.164;2023-06-22T18:35:36;2.37;;;1.80;;
76837;SDS011;65797;47.352;8.164;2023-06-22T18:38:03;1.57;;;1.47;;
76837;SDS011;65797;47.352;8.164;2023-06-22T18:40:30;4.27;;;2.07;;
76837;SDS011;65797;47.352;8.164;2023-06-22T18:42:59;2.37;;;1.67;;
76837;SDS011;65797;47.352;8.164;2023-06-22T18:45:26;1.90;;;1.57;;
76837;SDS011;65797;47.352;8.164;2023-06-22T18:50:35;2.17;;;1.90;;
76837;SDS011;65797;47.352;8.164;2023-06-22T18:53:02;3.40;;;2.07;;
76837;SDS011;65797;47.352;8.164;2023-06-22T18:55:30;5.03;;;2.10;;
76837;SDS011;65797;47.352;8.164;2023-06-22T18:58:16;4.07;;;2.13;;
76837;SDS011;65797;47.352;8.164;2023-06-22T19:00:44;3.00;;;1.70;;
76837;SDS011;65797;47.352;8.164;2023-06-22T19:03:21;6.73;;;1.90;;
76837;SDS011;65797;47.352;8.164;2023-06-22T19:05:55;3.63;;;1.77;;
76837;SDS011;65797;47.352;8.164;2023-06-22T19:08:21;2.40;;;1.77;;
76837;SDS011;65797;47.352;8.164;2023-06-22T19:10:48;2.03;;;1.80;;
76837;SDS011;65797;47.352;8.164;2023-06-22T19:18:28;2.40;;;1.97;;
76837;SDS011;65797;47.352;8.164;2023-06-22T19:21:08;2.87;;;1.50;;
76837;SDS011;65797;47.352;8.164;2023-06-22T19:23:39;2.60;;;2.07;;
76837;SDS011;65797;47.352;8.164;2023-06-22T19:28:47;5.70;;;2.43;;
76837;SDS011;65797;47.352;8.164;2023-06-22T19:31:14;5.30;;;2.03;;
76837;SDS011;65797;47.352;8.164;2023-06-22T19:33:40;3.00;;;1.60;;
76837;SDS011;65797;47.352;8.164;2023-06-22T19:36:06;3.77;;;2.13;;
76837;SDS011;65797;47.352;8.164;2023-06-22T19:38:32;4.10;;;1.70;;
76837;SDS011;65797;47.352;8.164;2023-06-22T19:40:59;3.13;;;1.53;;
76837;SDS011;65797;47.352;8.164;2023-06-22T19:43:32;6.27;;;2.10;;
76837;SDS011;65797;47.352;8.164;2023-06-22T19:45:58;4.43;;;1.90;;
76837;SDS011;65797;47.352;8.164;2023-06-22T19:48:25;6.37;;;2.03;;